createdAt,value
2023-05-05T00:00:46.813Z,72.39
2023-05-05T00:01:49.593Z,71.92
2023-05-05T00:02:51.414Z,71.75
2023-05-05T00:03:54.195Z,71.74
2023-05-05T00:04:56.010Z,72.33
2023-05-05T00:05:58.790Z,71.78
2023-05-05T00:07:00.786Z,71.52
2023-05-05T00:08:03.717Z,71.76
2023-05-05T00:09:07.031Z,71.74
2023-05-05T00:10:10.661Z,71.98
2023-05-05T00:11:12.490Z,72.03
2023-05-05T00:12:15.209Z,72.02
2023-05-05T00:13:17.439Z,72.02
2023-05-05T00:14:20.215Z,71.56
2023-05-05T00:15:21.954Z,71.78
2023-05-05T00:16:24.781Z,71.39
2023-05-05T00:17:26.885Z,71.84
2023-05-05T00:18:29.730Z,71.62
2023-05-05T00:19:31.484Z,72.09
2023-05-05T00:20:34.270Z,72.30
2023-05-05T00:21:36.032Z,71.79
2023-05-05T00:22:38.756Z,71.34
2023-05-05T00:23:40.594Z,71.60
2023-05-05T00:24:44.671Z,71.18
2023-05-05T00:25:46.680Z,71.30
2023-05-05T00:26:49.409Z,71.31
2023-05-05T00:27:51.131Z,71.58
2023-05-05T00:28:53.873Z,71.35
2023-05-05T00:29:55.730Z,71.09
2023-05-05T00:30:58.483Z,71.15
2023-05-05T00:32:00.315Z,71.18
2023-05-05T00:33:03.195Z,70.98
2023-05-05T00:34:05.230Z,70.72
2023-05-05T00:35:08.503Z,70.71
2023-05-05T00:36:10.526Z,70.76
2023-05-05T00:37:13.271Z,70.58
2023-05-05T00:38:15.056Z,70.73
2023-05-05T00:39:17.961Z,70.81
2023-05-05T00:40:21.374Z,70.72
2023-05-05T00:41:24.111Z,70.85
2023-05-05T00:42:26.311Z,70.31
2023-05-05T00:43:29.384Z,70.47
2023-05-05T00:44:36.078Z,70.47
2023-05-05T00:45:42.704Z,70.26
2023-05-05T00:46:44.801Z,70.18
2023-05-05T00:47:50.000Z,70.28
2023-05-05T00:48:52.910Z,70.49
2023-05-05T00:49:55.850Z,70.52
2023-05-05T00:50:58.242Z,70.43
2023-05-05T00:52:01.052Z,70.64
2023-05-05T00:53:03.955Z,70.50
2023-05-05T00:54:07.339Z,70.69
2023-05-05T00:55:10.070Z,70.81
2023-05-05T00:56:15.638Z,71.07
2023-05-05T00:57:17.479Z,70.95
2023-05-05T00:58:20.270Z,71.07
2023-05-05T00:59:22.134Z,71.21
2023-05-05T01:00:25.239Z,71.33
2023-05-05T01:01:27.331Z,71.54
2023-05-05T01:02:31.254Z,71.75
2023-05-05T01:03:33.736Z,72.00
2023-05-05T01:04:36.718Z,71.71
2023-05-05T01:05:49.690Z,72.04
2023-05-05T01:06:56.651Z,72.51
2023-05-05T01:08:22.382Z,71.94
2023-05-05T01:09:33.835Z,72.18
2023-05-05T01:10:37.084Z,72.01
2023-05-05T01:11:46.412Z,71.78
2023-05-05T01:12:54.029Z,71.82
2023-05-05T01:14:02.685Z,71.53
2023-05-05T01:15:11.059Z,71.81
2023-05-05T01:16:16.205Z,72.02
2023-05-05T01:17:20.702Z,72.13
2023-05-05T01:18:31.355Z,72.01
2023-05-05T01:19:51.036Z,71.93
2023-05-05T01:21:06.517Z,71.98
2023-05-05T01:22:12.217Z,71.48
2023-05-05T01:23:19.905Z,71.59
2023-05-05T01:24:47.556Z,71.81
2023-05-05T01:26:11.230Z,71.48
2023-05-05T01:27:34.223Z,71.11
2023-05-05T01:28:56.210Z,70.84
2023-05-05T01:30:10.820Z,70.87
2023-05-05T01:31:33.916Z,71.27
2023-05-05T01:32:38.912Z,71.56
2023-05-05T01:33:45.391Z,71.33
2023-05-05T01:34:53.816Z,71.00
2023-05-05T01:35:59.278Z,71.30
2023-05-05T01:37:07.512Z,71.34
2023-05-05T01:38:18.545Z,71.55
2023-05-05T01:39:21.066Z,71.61
2023-05-05T01:40:28.421Z,71.21
2023-05-05T01:41:33.254Z,71.26
2023-05-05T01:42:37.477Z,71.50
2023-05-05T01:43:39.950Z,71.94
2023-05-05T01:44:43.821Z,71.73
2023-05-05T01:45:46.781Z,71.67
2023-05-05T01:46:53.002Z,71.86
2023-05-05T01:47:56.028Z,71.74
2023-05-05T01:48:59.682Z,71.81
2023-05-05T01:50:02.359Z,71.91
2023-05-05T01:51:06.382Z,72.00
2023-05-05T01:52:09.391Z,71.95
2023-05-05T01:53:12.664Z,71.77
2023-05-05T01:54:15.459Z,72.03
2023-05-05T01:55:19.364Z,72.01
2023-05-05T01:56:23.290Z,71.90
2023-05-05T01:57:26.705Z,71.82
2023-05-05T01:58:29.501Z,71.96
2023-05-05T01:59:33.394Z,72.03
2023-05-05T02:00:35.472Z,72.24
2023-05-05T02:01:41.490Z,72.29
2023-05-05T02:02:45.650Z,72.17
2023-05-05T02:03:48.832Z,72.47
2023-05-05T02:04:51.187Z,72.42
2023-05-05T02:05:54.707Z,72.35
2023-05-05T02:06:57.062Z,72.69
2023-05-05T02:08:00.355Z,72.50
2023-05-05T02:09:02.626Z,72.83
2023-05-05T02:10:06.427Z,72.97
2023-05-05T02:11:09.560Z,72.87
2023-05-05T02:12:13.941Z,72.73
2023-05-05T02:13:16.053Z,73.14
2023-05-05T02:14:20.664Z,73.15
2023-05-05T02:15:23.782Z,73.08
2023-05-05T02:16:26.638Z,73.07
2023-05-05T02:17:30.524Z,73.18
2023-05-05T02:18:35.982Z,73.23
2023-05-05T02:19:39.883Z,73.30
2023-05-05T02:20:42.815Z,73.30
2023-05-05T02:21:45.527Z,73.51
2023-05-05T02:22:48.341Z,73.64
2023-05-05T02:23:51.817Z,73.75
2023-05-05T02:25:15.253Z,73.95
2023-05-05T02:26:20.322Z,74.23
2023-05-05T02:27:23.182Z,74.03
2023-05-05T02:28:32.086Z,73.74
2023-05-05T02:29:36.417Z,73.95
2023-05-05T02:30:40.231Z,74.04
2023-05-05T02:31:45.488Z,74.17
2023-05-05T02:32:51.903Z,74.29
2023-05-05T02:33:56.341Z,74.31
2023-05-05T02:34:59.914Z,74.35
2023-05-05T02:36:19.382Z,74.45
2023-05-05T02:37:32.866Z,74.89
2023-05-05T02:38:37.363Z,74.77
2023-05-05T02:39:43.875Z,74.59
2023-05-05T02:40:49.953Z,74.75
2023-05-05T02:41:54.312Z,74.54
2023-05-05T02:43:05.153Z,74.73
2023-05-05T02:44:09.030Z,74.51
2023-05-05T02:45:14.581Z,74.28
2023-05-05T02:46:20.922Z,74.00
2023-05-05T02:47:23.762Z,73.95
2023-05-05T02:48:29.745Z,73.58
2023-05-05T02:49:35.667Z,73.85
2023-05-05T02:50:38.543Z,73.83
2023-05-05T02:52:07.280Z,73.88
2023-05-05T02:53:11.777Z,73.62
2023-05-05T02:54:14.842Z,73.93
2023-05-05T02:55:16.768Z,73.61
2023-05-05T02:56:29.167Z,73.62
2023-05-05T02:57:38.724Z,73.98
2023-05-05T02:58:46.096Z,73.35
2023-05-05T02:59:53.089Z,73.25
2023-05-05T03:01:07.261Z,73.26
2023-05-05T03:02:14.724Z,72.97
2023-05-05T03:03:23.601Z,73.44
2023-05-05T03:04:29.614Z,73.34
2023-05-05T03:05:38.124Z,73.01
2023-05-05T03:06:41.474Z,73.30
2023-05-05T03:07:51.939Z,73.32
2023-05-05T03:08:57.635Z,73.46
2023-05-05T03:10:06.722Z,73.24
2023-05-05T03:11:16.592Z,73.70
2023-05-05T03:12:22.236Z,73.34
2023-05-05T03:13:37.069Z,73.62
2023-05-05T03:14:42.191Z,73.51
2023-05-05T03:15:48.150Z,73.75
2023-05-05T03:16:56.386Z,73.79
2023-05-05T03:17:59.349Z,73.70
2023-05-05T03:19:04.463Z,73.92
2023-05-05T03:20:08.126Z,73.85
2023-05-05T03:21:15.507Z,73.47
2023-05-05T03:22:18.063Z,73.93
2023-05-05T03:23:23.027Z,73.69
2023-05-05T03:24:30.159Z,73.92
2023-05-05T03:25:44.424Z,73.67
2023-05-05T03:26:50.367Z,73.51
2023-05-05T03:27:56.804Z,73.43
2023-05-05T03:28:58.613Z,73.50
2023-05-05T03:30:06.923Z,73.74
2023-05-05T03:31:11.841Z,73.41
2023-05-05T03:32:15.396Z,73.49
2023-05-05T03:33:18.494Z,73.42
2023-05-05T03:34:21.478Z,73.78
2023-05-05T03:35:24.030Z,73.47
2023-05-05T03:36:29.529Z,73.52
2023-05-05T03:37:32.724Z,73.66
2023-05-05T03:38:35.774Z,73.80
2023-05-05T03:39:37.613Z,73.74
2023-05-05T03:40:44.470Z,73.86
2023-05-05T03:41:49.137Z,73.87
2023-05-05T03:42:53.637Z,74.09
2023-05-05T03:43:55.424Z,74.40
2023-05-05T03:44:58.190Z,74.56
2023-05-05T03:46:00.553Z,74.96
2023-05-05T03:47:04.273Z,74.99
2023-05-05T03:48:09.685Z,75.44
2023-05-05T03:49:13.566Z,75.66
2023-05-05T03:50:17.304Z,75.77
2023-05-05T03:51:20.245Z,75.69
2023-05-05T03:52:23.421Z,75.50
2023-05-05T03:53:26.429Z,76.04
2023-05-05T03:54:28.275Z,75.74
2023-05-05T03:55:31.105Z,76.41
2023-05-05T03:56:32.951Z,76.63
2023-05-05T03:57:35.848Z,76.49
2023-05-05T03:58:37.718Z,76.80
2023-05-05T03:59:40.483Z,76.86
2023-05-05T04:00:42.318Z,76.22
2023-05-05T04:01:46.629Z,76.72
2023-05-05T04:02:48.700Z,76.16
2023-05-05T04:03:54.013Z,76.82
2023-05-05T04:04:55.915Z,76.11
2023-05-05T04:05:58.749Z,76.73
2023-05-05T04:07:00.654Z,76.31
2023-05-05T04:08:05.734Z,76.44
2023-05-05T04:09:07.545Z,77.12
2023-05-05T04:10:11.812Z,76.63
2023-05-05T04:11:13.727Z,77.22
2023-05-05T04:12:17.020Z,76.51
2023-05-05T04:13:18.920Z,77.11
2023-05-05T04:14:22.329Z,76.50
2023-05-05T04:15:24.591Z,76.25
2023-05-05T04:16:27.571Z,76.68
2023-05-05T04:17:30.004Z,76.65
2023-05-05T04:18:32.954Z,76.27
2023-05-05T04:19:34.860Z,76.48
2023-05-05T04:20:39.250Z,76.23
2023-05-05T04:21:41.241Z,76.41
2023-05-05T04:22:44.694Z,75.81
2023-05-05T04:23:48.240Z,75.60
2023-05-05T04:24:51.029Z,75.96
2023-05-05T04:25:53.264Z,75.33
2023-05-05T04:26:56.254Z,75.23
2023-05-05T04:27:58.032Z,74.51
2023-05-05T04:29:01.227Z,74.76
2023-05-05T04:30:03.491Z,75.03
2023-05-05T04:31:08.139Z,74.89
2023-05-05T04:32:12.707Z,74.37
2023-05-05T04:33:15.562Z,74.15
2023-05-05T04:34:17.592Z,74.06
2023-05-05T04:35:20.390Z,73.57
2023-05-05T04:36:22.264Z,73.10
2023-05-05T04:37:26.209Z,72.75
2023-05-05T04:38:28.218Z,72.06
2023-05-05T04:39:33.043Z,71.54
2023-05-05T04:40:39.729Z,71.42
2023-05-05T04:41:42.105Z,71.34
2023-05-05T04:42:45.637Z,70.96
2023-05-05T04:43:47.701Z,70.85
2023-05-05T04:44:51.375Z,70.69
2023-05-05T04:45:53.755Z,70.66
2023-05-05T04:46:58.643Z,70.69
2023-05-05T04:48:00.632Z,70.40
2023-05-05T04:49:05.139Z,70.28
2023-05-05T04:50:08.601Z,70.03
2023-05-05T04:51:12.755Z,69.67
2023-05-05T04:52:15.580Z,69.43
2023-05-05T04:53:18.403Z,69.06
2023-05-05T04:54:20.427Z,69.30
2023-05-05T04:55:24.554Z,68.90
2023-05-05T04:56:26.358Z,68.29
2023-05-05T04:57:31.289Z,68.50
2023-05-05T04:58:33.451Z,68.17
2023-05-05T04:59:36.825Z,67.77
2023-05-05T05:00:38.588Z,67.71
2023-05-05T05:01:41.393Z,67.70
2023-05-05T05:02:43.349Z,67.51
2023-05-05T05:03:46.288Z,66.85
2023-05-05T05:04:48.195Z,67.12
2023-05-05T05:05:51.124Z,66.70
2023-05-05T05:06:52.958Z,66.33
2023-05-05T05:07:56.067Z,65.86
2023-05-05T05:08:58.510Z,66.01
2023-05-05T05:10:01.517Z,66.03
2023-05-05T05:11:04.795Z,65.54
2023-05-05T05:12:09.567Z,65.49
2023-05-05T05:13:12.993Z,65.61
2023-05-05T05:14:16.080Z,65.09
2023-05-05T05:15:18.171Z,64.75
2023-05-05T05:16:21.501Z,64.63
2023-05-05T05:17:24.041Z,64.15
2023-05-05T05:18:26.931Z,63.64
2023-05-05T05:19:29.346Z,63.33
2023-05-05T05:20:32.704Z,63.82
2023-05-05T05:21:34.573Z,63.09
2023-05-05T05:22:38.690Z,62.69
2023-05-05T05:23:43.720Z,63.66
2023-05-05T05:24:46.509Z,62.86
2023-05-05T05:25:49.004Z,62.52
2023-05-05T05:26:55.501Z,62.53
2023-05-05T05:28:08.985Z,62.77
2023-05-05T05:29:16.611Z,63.16
2023-05-05T05:30:18.633Z,62.72
2023-05-05T05:31:21.468Z,63.18
2023-05-05T05:32:23.255Z,63.82
2023-05-05T05:33:26.183Z,62.68
2023-05-05T05:34:30.032Z,62.19
2023-05-05T05:35:33.096Z,62.32
2023-05-05T05:36:35.170Z,62.39
2023-05-05T05:37:39.125Z,62.58
2023-05-05T05:38:41.648Z,62.10
2023-05-05T05:39:45.011Z,62.08
2023-05-05T05:40:47.248Z,61.63
2023-05-05T05:41:50.388Z,62.22
2023-05-05T05:42:54.326Z,61.97
2023-05-05T05:43:57.114Z,61.34
2023-05-05T05:44:59.155Z,61.24
2023-05-05T05:46:02.363Z,61.56
2023-05-05T05:47:04.630Z,61.65
2023-05-05T05:48:07.545Z,61.98
2023-05-05T05:49:10.401Z,62.20
2023-05-05T05:50:12.318Z,61.71
2023-05-05T05:51:15.114Z,60.69
2023-05-05T05:52:17.005Z,60.55
2023-05-05T05:53:19.839Z,60.01
2023-05-05T05:54:21.656Z,59.49
2023-05-05T05:55:24.484Z,58.87
2023-05-05T05:56:27.086Z,58.76
2023-05-05T05:57:30.162Z,58.78
2023-05-05T05:58:33.416Z,58.67
2023-05-05T05:59:36.244Z,58.42
2023-05-05T06:00:39.205Z,58.00
2023-05-05T06:01:44.121Z,57.97
2023-05-05T06:02:46.997Z,57.64
2023-05-05T06:03:52.967Z,57.29
2023-05-05T06:04:56.791Z,56.75
2023-05-05T06:05:59.161Z,55.93
2023-05-05T06:07:02.174Z,56.13
2023-05-05T06:08:04.446Z,55.90
2023-05-05T06:09:09.939Z,55.29
2023-05-05T06:10:26.687Z,54.77
2023-05-05T06:11:37.010Z,55.34
2023-05-05T06:12:38.858Z,55.31
2023-05-05T06:13:43.053Z,55.51
2023-05-05T06:14:45.077Z,55.02
2023-05-05T06:15:47.930Z,54.72
2023-05-05T06:16:52.697Z,54.41
2023-05-05T06:17:57.133Z,53.87
2023-05-05T06:18:59.931Z,53.85
2023-05-05T06:20:02.118Z,53.78
2023-05-05T06:21:05.189Z,53.33
2023-05-05T06:22:08.128Z,52.30
2023-05-05T06:23:10.948Z,52.17
2023-05-05T06:24:18.255Z,51.93
2023-05-05T06:25:20.364Z,51.96
2023-05-05T06:26:26.003Z,52.16
2023-05-05T06:27:27.823Z,51.66
2023-05-05T06:28:30.562Z,50.82
2023-05-05T06:29:34.689Z,50.72
2023-05-05T06:30:36.555Z,50.50
2023-05-05T06:31:39.336Z,50.67
2023-05-05T06:32:41.152Z,50.14
2023-05-05T06:33:44.030Z,49.72
2023-05-05T06:34:47.365Z,49.64
2023-05-05T06:35:50.087Z,49.63
2023-05-05T06:36:51.972Z,49.91
2023-05-05T06:37:54.765Z,49.22
2023-05-05T06:38:56.617Z,48.92
2023-05-05T06:39:59.426Z,48.76
2023-05-05T06:41:02.447Z,48.75
2023-05-05T06:42:04.271Z,48.93
2023-05-05T06:43:07.704Z,48.60
2023-05-05T06:44:16.442Z,47.91
2023-05-05T06:45:19.671Z,48.01
2023-05-05T06:46:22.532Z,47.67
2023-05-05T06:47:24.372Z,46.91
2023-05-05T06:48:27.286Z,47.68
2023-05-05T06:49:29.141Z,46.75
2023-05-05T06:50:31.971Z,46.28
2023-05-05T06:51:34.025Z,45.77
2023-05-05T06:52:36.805Z,45.95
2023-05-05T06:53:38.653Z,46.62
2023-05-05T06:54:41.464Z,46.08
2023-05-05T06:55:45.464Z,45.52
2023-05-05T06:56:48.284Z,45.62
2023-05-05T06:57:51.002Z,45.51
2023-05-05T06:58:52.813Z,45.07
2023-05-05T06:59:55.899Z,46.14
2023-05-05T07:01:00.123Z,45.31
2023-05-05T07:02:02.060Z,45.12
2023-05-05T07:03:05.181Z,44.65
2023-05-05T07:04:07.133Z,44.55
2023-05-05T07:05:10.448Z,44.40
2023-05-05T07:06:13.379Z,44.28
2023-05-05T07:07:15.161Z,43.95
2023-05-05T07:08:17.980Z,44.47
2023-05-05T07:09:20.253Z,44.79
2023-05-05T07:10:23.883Z,44.18
2023-05-05T07:11:26.678Z,43.93
2023-05-05T07:12:30.050Z,43.38
2023-05-05T07:13:33.106Z,42.91
2023-05-05T07:14:34.932Z,42.74
2023-05-05T07:15:37.748Z,42.87
2023-05-05T07:16:41.911Z,42.07
2023-05-05T07:17:43.917Z,42.69
2023-05-05T07:18:46.737Z,42.11
2023-05-05T07:19:48.481Z,42.03
2023-05-05T07:20:51.417Z,41.88
2023-05-05T07:21:54.130Z,41.52
2023-05-05T07:22:57.100Z,41.63
2023-05-05T07:23:58.942Z,41.55
2023-05-05T07:25:01.682Z,41.60
2023-05-05T07:26:03.757Z,41.17
2023-05-05T07:27:07.549Z,40.61
2023-05-05T07:28:10.729Z,40.79
2023-05-05T07:29:13.570Z,40.92
2023-05-05T07:30:17.544Z,40.55
2023-05-05T07:31:21.985Z,40.52
2023-05-05T07:32:25.374Z,40.93
2023-05-05T07:33:40.648Z,40.39
2023-05-05T07:34:42.670Z,40.09
2023-05-05T07:35:46.045Z,39.94
2023-05-05T07:36:48.174Z,39.65
2023-05-05T07:37:51.094Z,40.13
2023-05-05T07:38:52.873Z,40.20
2023-05-05T07:39:55.690Z,40.06
2023-05-05T07:40:58.453Z,39.96
2023-05-05T07:42:01.568Z,40.18
2023-05-05T07:43:04.901Z,39.66
2023-05-05T07:44:06.745Z,39.63
2023-05-05T07:45:10.193Z,39.28
2023-05-05T07:46:12.215Z,39.32
2023-05-05T07:47:15.026Z,39.10
2023-05-05T07:48:19.159Z,39.17
2023-05-05T07:49:21.709Z,39.22
2023-05-05T07:50:24.927Z,39.00
2023-05-05T07:51:27.732Z,39.74
2023-05-05T07:52:45.006Z,40.09
2023-05-05T07:53:51.146Z,39.41
2023-05-05T07:54:53.930Z,39.67
2023-05-05T07:55:56.867Z,39.11
2023-05-05T07:56:59.676Z,38.96
2023-05-05T07:58:03.696Z,38.41
2023-05-05T07:59:06.827Z,38.64
2023-05-05T08:00:11.080Z,38.63
2023-05-05T08:01:17.000Z,38.60
2023-05-05T08:02:19.844Z,38.28
2023-05-05T08:03:24.890Z,38.23
2023-05-05T08:04:28.093Z,37.67
2023-05-05T08:05:29.947Z,37.42
2023-05-05T08:06:32.824Z,37.15
2023-05-05T08:07:36.399Z,36.97
2023-05-05T08:08:39.267Z,36.65
2023-05-05T08:09:42.000Z,36.12
2023-05-05T08:10:44.766Z,36.00
2023-05-05T08:11:46.709Z,36.32
2023-05-05T08:12:49.764Z,35.97
2023-05-05T08:13:51.900Z,36.74
2023-05-05T08:14:54.689Z,36.22
2023-05-05T08:15:56.743Z,35.47
2023-05-05T08:16:59.655Z,35.58
2023-05-05T08:18:01.537Z,36.39
2023-05-05T08:19:12.065Z,36.56
2023-05-05T08:20:29.231Z,35.83
2023-05-05T08:21:32.040Z,35.38
2023-05-05T08:22:34.796Z,36.00
2023-05-05T08:23:38.520Z,35.40
2023-05-05T08:24:40.316Z,35.62
2023-05-05T08:25:43.049Z,35.02
2023-05-05T08:26:46.070Z,35.30
2023-05-05T08:27:47.970Z,35.57
2023-05-05T08:28:54.994Z,35.75
2023-05-05T08:29:57.740Z,35.65
2023-05-05T08:31:01.272Z,35.45
2023-05-05T08:32:03.065Z,34.56
2023-05-05T08:33:05.802Z,34.78
2023-05-05T08:34:08.967Z,34.74
2023-05-05T08:35:12.304Z,34.38
2023-05-05T08:36:14.275Z,34.52
2023-05-05T08:37:18.813Z,34.57
2023-05-05T08:38:21.620Z,33.86
2023-05-05T08:39:24.382Z,34.57
2023-05-05T08:40:30.054Z,33.94
2023-05-05T08:41:32.838Z,33.85
2023-05-05T08:42:40.966Z,33.76
2023-05-05T08:43:48.026Z,35.14
2023-05-05T08:44:49.823Z,34.88
2023-05-05T08:45:52.715Z,34.21
2023-05-05T08:46:55.215Z,34.05
2023-05-05T08:47:58.590Z,33.45
2023-05-05T08:49:03.754Z,32.92
2023-05-05T08:50:10.552Z,32.37
2023-05-05T08:51:18.139Z,32.86
2023-05-05T08:52:23.302Z,33.21
2023-05-05T08:53:32.298Z,33.13
2023-05-05T08:54:36.000Z,32.80
2023-05-05T08:55:45.276Z,32.97
2023-05-05T08:56:47.967Z,32.86
2023-05-05T08:57:53.259Z,32.68
2023-05-05T08:58:56.431Z,32.44
2023-05-05T08:59:59.574Z,32.85
2023-05-05T09:01:01.606Z,33.57
2023-05-05T09:02:05.223Z,32.59
2023-05-05T09:03:07.681Z,32.48
2023-05-05T09:04:11.513Z,32.29
2023-05-05T09:05:15.033Z,33.16
2023-05-05T09:06:17.829Z,32.58
2023-05-05T09:07:19.652Z,32.53
2023-05-05T09:08:22.481Z,32.85
2023-05-05T09:09:24.480Z,32.70
2023-05-05T09:10:29.560Z,33.02
2023-05-05T09:11:32.308Z,32.76
2023-05-05T09:12:35.635Z,33.44
2023-05-05T09:13:38.379Z,33.25
2023-05-05T09:14:40.203Z,32.42
2023-05-05T09:15:42.990Z,32.32
2023-05-05T09:16:44.764Z,32.89
2023-05-05T09:17:48.165Z,32.78
2023-05-05T09:18:50.119Z,32.63
2023-05-05T09:20:08.539Z,31.60
2023-05-05T09:21:22.541Z,32.11
2023-05-05T09:22:33.222Z,32.49
2023-05-05T09:23:36.038Z,33.07
2023-05-05T09:24:37.805Z,32.58
2023-05-05T09:25:41.192Z,32.45
2023-05-05T09:26:43.898Z,32.53
2023-05-05T09:27:48.303Z,32.05
2023-05-05T09:28:51.724Z,32.52
2023-05-05T09:29:56.184Z,31.50
2023-05-05T09:31:13.209Z,29.81
2023-05-05T09:32:15.141Z,32.02
2023-05-05T09:33:29.868Z,30.99
2023-05-05T09:34:33.869Z,32.27
2023-05-05T09:35:50.061Z,31.48
2023-05-05T09:36:53.226Z,32.10
2023-05-05T09:37:56.153Z,32.30
2023-05-05T09:39:04.678Z,31.92
2023-05-05T09:40:09.279Z,32.36
2023-05-05T09:41:12.284Z,31.94
2023-05-05T09:42:18.072Z,31.83
2023-05-05T09:43:22.577Z,32.39
2023-05-05T09:44:34.282Z,31.90
2023-05-05T09:45:37.421Z,32.00
2023-05-05T09:46:51.264Z,31.41
2023-05-05T09:47:59.121Z,31.14
2023-05-05T09:49:16.542Z,30.06
2023-05-05T09:50:19.241Z,30.91
2023-05-05T09:51:29.770Z,31.32
2023-05-05T09:52:33.941Z,30.98
2023-05-05T09:53:40.568Z,31.34
2023-05-05T09:54:42.551Z,31.97
2023-05-05T09:55:53.814Z,30.46
2023-05-05T09:56:57.391Z,31.35
2023-05-05T09:58:19.282Z,29.55
2023-05-05T09:59:22.292Z,31.22
2023-05-05T10:00:38.663Z,30.54
2023-05-05T10:01:44.155Z,30.63
2023-05-05T10:02:48.528Z,30.50
2023-05-05T10:03:51.452Z,30.88
2023-05-05T10:05:05.764Z,30.38
2023-05-05T10:06:09.169Z,30.34
2023-05-05T10:07:24.118Z,29.74
2023-05-05T10:08:31.581Z,30.49
2023-05-05T10:09:33.457Z,31.36
2023-05-05T10:10:49.516Z,29.82
2023-05-05T10:11:52.051Z,30.29
2023-05-05T10:12:55.115Z,30.51
2023-05-05T10:13:57.387Z,30.48
2023-05-05T10:15:02.590Z,29.96
2023-05-05T10:16:06.413Z,29.67
2023-05-05T10:17:09.696Z,29.96
2023-05-05T10:18:13.104Z,29.95
2023-05-05T10:19:16.321Z,30.06
2023-05-05T10:20:20.052Z,30.27
2023-05-05T10:21:21.980Z,30.50
2023-05-05T10:22:27.400Z,29.49
2023-05-05T10:23:34.884Z,30.01
2023-05-05T10:24:40.411Z,29.59
2023-05-05T10:25:49.960Z,30.33
2023-05-05T10:26:53.258Z,30.47
2023-05-05T10:27:55.889Z,30.55
2023-05-05T10:29:01.354Z,30.41
2023-05-05T10:30:05.270Z,30.91
2023-05-05T10:31:25.237Z,31.15
2023-05-05T10:32:55.972Z,30.44
2023-05-05T10:34:07.555Z,29.62
2023-05-05T10:35:11.257Z,30.52
2023-05-05T10:36:13.080Z,30.67
2023-05-05T10:37:17.891Z,30.10
2023-05-05T10:38:22.174Z,30.33
2023-05-05T10:39:27.430Z,30.57
2023-05-05T10:40:29.459Z,30.45
2023-05-05T10:41:34.062Z,30.81
2023-05-05T10:42:37.406Z,30.70
2023-05-05T10:43:41.686Z,30.32
2023-05-05T10:44:44.487Z,30.89
2023-05-05T10:45:46.866Z,30.86
2023-05-05T10:46:50.169Z,30.98
2023-05-05T10:47:53.669Z,31.32
2023-05-05T10:49:00.348Z,31.35
2023-05-05T10:50:09.086Z,31.47
2023-05-05T10:51:38.585Z,31.25
2023-05-05T10:52:49.053Z,32.01
2023-05-05T10:53:56.855Z,31.84
2023-05-05T10:55:09.206Z,31.31
2023-05-05T10:56:18.738Z,31.68
2023-05-05T10:57:23.787Z,31.64
2023-05-05T10:58:32.211Z,31.34
2023-05-05T10:59:42.591Z,31.81
2023-05-05T11:00:53.995Z,31.19
2023-05-05T11:01:55.780Z,31.03
2023-05-05T11:03:23.120Z,30.31
2023-05-05T11:04:25.288Z,31.28
2023-05-05T11:05:28.036Z,31.22
2023-05-05T11:06:31.039Z,31.17
2023-05-05T11:07:34.429Z,30.62
2023-05-05T11:08:37.035Z,30.71
2023-05-05T11:09:56.019Z,31.17
2023-05-05T11:11:00.605Z,31.63
2023-05-05T11:12:03.425Z,31.40
2023-05-05T11:13:19.830Z,30.94
2023-05-05T11:14:22.856Z,31.34
2023-05-05T11:15:37.228Z,31.05
2023-05-05T11:16:45.524Z,30.83
2023-05-05T11:17:48.144Z,31.34
2023-05-05T11:18:50.996Z,31.55
2023-05-05T11:19:53.299Z,31.23
2023-05-05T11:21:17.014Z,31.68
2023-05-05T11:22:19.875Z,31.24
2023-05-05T11:23:21.899Z,31.43
2023-05-05T11:24:29.192Z,31.32
2023-05-05T11:25:51.279Z,30.18
2023-05-05T11:26:55.399Z,31.30
2023-05-05T11:28:06.664Z,30.04
2023-05-05T11:29:11.681Z,31.39
2023-05-05T11:30:15.126Z,31.72
2023-05-05T11:31:20.003Z,30.92
2023-05-05T11:32:21.957Z,31.42
2023-05-05T11:33:24.884Z,30.91
2023-05-05T11:34:28.797Z,30.13
2023-05-05T11:35:55.641Z,28.71
2023-05-05T11:37:02.146Z,30.76
2023-05-05T11:38:05.756Z,30.49
2023-05-05T11:39:20.723Z,28.30
2023-05-05T11:40:27.735Z,30.40
2023-05-05T11:42:09.466Z,29.59
2023-05-05T11:43:19.959Z,30.79
2023-05-05T11:44:30.047Z,30.17
2023-05-05T11:45:33.143Z,30.72
2023-05-05T11:46:35.236Z,31.10
2023-05-05T11:47:38.281Z,30.41
2023-05-05T11:48:46.913Z,30.09
2023-05-05T11:49:50.582Z,30.28
2023-05-05T11:50:53.600Z,30.75
2023-05-05T11:51:59.037Z,30.62
2023-05-05T11:53:01.999Z,30.66
2023-05-05T11:54:03.827Z,30.14
2023-05-05T11:55:17.189Z,30.69
2023-05-05T11:56:20.651Z,30.80
2023-05-05T11:57:29.349Z,30.11
2023-05-05T11:58:33.426Z,30.24
2023-05-05T11:59:37.232Z,30.54
2023-05-05T12:00:40.068Z,30.30
2023-05-05T12:01:42.323Z,30.54
2023-05-05T12:02:45.281Z,30.43
2023-05-05T12:03:47.272Z,29.97
2023-05-05T12:04:50.683Z,29.94
2023-05-05T12:05:55.453Z,29.47
2023-05-05T12:06:57.780Z,29.92
2023-05-05T12:08:00.628Z,29.09
2023-05-05T12:09:04.361Z,28.92
2023-05-05T12:10:08.395Z,29.27
2023-05-05T12:11:11.132Z,28.64
2023-05-05T12:12:14.943Z,28.83
2023-05-05T12:13:20.938Z,28.53
2023-05-05T12:14:25.150Z,28.63
2023-05-05T12:15:32.120Z,28.36
2023-05-05T12:16:33.944Z,28.85
2023-05-05T12:17:40.085Z,28.02
2023-05-05T12:18:42.517Z,27.84
2023-05-05T12:19:49.970Z,28.24
2023-05-05T12:20:52.900Z,28.68
2023-05-05T12:21:57.521Z,28.42
2023-05-05T12:23:01.560Z,27.96
2023-05-05T12:24:03.618Z,28.50
2023-05-05T12:25:07.948Z,28.44
2023-05-05T12:26:25.448Z,27.48
2023-05-05T12:27:29.198Z,28.40
2023-05-05T12:28:44.429Z,27.93
2023-05-05T12:29:47.553Z,28.57
2023-05-05T12:30:57.723Z,28.61
2023-05-05T12:32:00.253Z,29.48
2023-05-05T12:33:03.824Z,28.61
2023-05-05T12:34:06.550Z,28.28
2023-05-05T12:35:11.034Z,27.98
2023-05-05T12:36:14.536Z,27.96
2023-05-05T12:37:19.052Z,28.10
2023-05-05T12:38:21.858Z,28.66
2023-05-05T12:39:23.680Z,28.37
2023-05-05T12:40:48.658Z,26.97
2023-05-05T12:41:50.647Z,28.07
2023-05-05T12:42:53.750Z,28.43
2023-05-05T12:43:57.138Z,28.60
2023-05-05T12:45:00.409Z,27.95
2023-05-05T12:46:05.191Z,27.85
2023-05-05T12:47:08.386Z,28.33
2023-05-05T12:48:32.038Z,27.56
2023-05-05T12:49:45.339Z,27.14
2023-05-05T12:50:48.179Z,27.25
2023-05-05T12:51:54.891Z,27.39
2023-05-05T12:52:56.698Z,27.73
2023-05-05T12:54:03.989Z,27.55
2023-05-05T12:55:06.623Z,27.99
2023-05-05T12:56:34.082Z,27.14
2023-05-05T12:57:37.225Z,27.90
2023-05-05T12:58:50.966Z,27.85
2023-05-05T12:59:54.284Z,28.54
2023-05-05T13:01:10.353Z,28.05
2023-05-05T13:02:13.130Z,28.12
2023-05-05T13:03:20.230Z,27.96
2023-05-05T13:04:24.053Z,27.75
2023-05-05T13:05:33.473Z,27.01
2023-05-05T13:06:35.917Z,27.10
2023-05-05T13:07:51.052Z,26.15
2023-05-05T13:08:52.879Z,28.13
2023-05-05T13:10:07.760Z,27.14
2023-05-05T13:11:10.308Z,27.43
2023-05-05T13:12:13.372Z,27.35
2023-05-05T13:13:15.173Z,27.59
2023-05-05T13:14:18.082Z,28.21
2023-05-05T13:15:19.828Z,28.42
2023-05-05T13:16:24.029Z,28.55
2023-05-05T13:17:26.853Z,28.50
2023-05-05T13:18:28.648Z,27.81
2023-05-05T13:19:31.728Z,27.83
2023-05-05T13:20:34.581Z,27.62
2023-05-05T13:21:36.404Z,27.27
2023-05-05T13:22:39.123Z,27.65
2023-05-05T13:23:42.985Z,27.24
2023-05-05T13:24:51.573Z,27.15
2023-05-05T13:25:54.362Z,27.45
2023-05-05T13:26:57.207Z,27.28
2023-05-05T13:27:59.109Z,27.05
2023-05-05T13:29:01.924Z,27.35
2023-05-05T13:30:06.089Z,26.98
2023-05-05T13:31:08.092Z,27.16
2023-05-05T13:32:12.433Z,27.11
2023-05-05T13:33:14.249Z,27.47
2023-05-05T13:34:17.394Z,27.12
2023-05-05T13:35:19.266Z,26.80
2023-05-05T13:36:22.059Z,27.05
2023-05-05T13:37:24.238Z,26.87
2023-05-05T13:38:27.058Z,26.71
2023-05-05T13:39:29.865Z,26.75
2023-05-05T13:40:31.709Z,26.61
2023-05-05T13:41:34.497Z,26.94
2023-05-05T13:42:37.620Z,27.37
2023-05-05T13:43:39.371Z,26.70
2023-05-05T13:44:42.513Z,26.65
2023-05-05T13:45:44.669Z,27.07
2023-05-05T13:46:47.517Z,27.41
2023-05-05T13:47:51.013Z,27.28
2023-05-05T13:48:56.586Z,27.66
2023-05-05T13:49:59.628Z,28.07
2023-05-05T13:51:01.394Z,27.88
2023-05-05T13:52:04.233Z,27.57
2023-05-05T13:53:06.051Z,27.01
2023-05-05T13:54:09.680Z,27.20
2023-05-05T13:55:11.493Z,26.86
2023-05-05T13:56:14.258Z,26.73